ROTAER D-AMDT 47/21 Ver mudanças

Barreiras ( SNBR ) / BARREIRAS, BA 12 04 45S/045 00 34W
AD PUB São Francisco Administração Aeroportuária 19WNN UTC-3 VFR L21 , L26 748 (2454)

08 - L12 - ( 1600x30 ASPH 35/F/A/X/T L14 , L15 ) - L12 - 26

SBRE (CINDACTA 3)
RDONAV -
VOR/DME BRR 114.3 1204.80S/04500.43W
CMB- [3] TF
MET - MET CIVIL –

[1] [2]

RMK -

DADOS GEOGRÁFICOS E ADMINISTRATIVOS DE AERÓDROMO
  1. Contato telefônico para COOR: João Victor Faria Citadella (Gestão do Aeródromo) - (71) 99663-6362.
HORÁRIO DE FUNCIONAMENTO
  1. OPS VFR noturna PPR e COOR O/R com antecedência MNM de 3 horas.
OBSTÁCULO DE AERÓDROMO
  1. OBS OBST (antena) DIST 5578M da THR 08, no AZM 203DEG, ELEV 2444FT
COMPL -
  • [1] MET ERAA (ESTACAO DE RADIODIFUSAO AUTOMATICA DE AERODROMO) FREQ 132.350MHZ.
  • [2] PARA ACESSAR METAR/SPECI AUTO USAR CODIGO DE LOCALIDADE SNBR
  • [3] Abastecimento pela empresa Barreiras Comercio de Petróleo e Derivados Ltda. Horário de funcionamento: DLY 1100-2100, demais horários COOR , com antecedência MNM de 03 horas, pelos telefones: (77) 99983-5730, (77) 99956-4912 ou (77) 98828-2555.
TEMP (1)
INFOTEMP 1998R/21
OBST (TORRE) NEG LGTD VIOLANDO O PLANO BASICO DE ZONA DE PROTECAO DO AD COORD 120607.04S/0445944.89W ALT 792M (2597,92 FT)

Duração: 25/10/21 12:25 a 17/10/22 23:59 UTC | Divulgação: 25/10/2021 12:25


Suplementos AIP (0)

NOTAM (0)

Nascer/Por do Sol

08:27

21:16


METAR

072000Z AUTO 31003KT 260V360 CAVOK 26/22 Q1011=

TAF


Cartas (0)


Rotas Preferenciais (0)